createdAt,value
2023-06-03T00:00:23.976Z,1.55
2023-06-03T00:02:54.515Z,1.77
2023-06-03T00:05:23.731Z,1.80
2023-06-03T00:07:52.894Z,1.48
2023-06-03T00:10:21.511Z,1.85
2023-06-03T00:12:51.508Z,1.60
2023-06-03T00:15:21.246Z,2.20
2023-06-03T00:17:50.275Z,2.10
2023-06-03T00:20:19.248Z,2.85
2023-06-03T00:22:48.224Z,2.40
2023-06-03T00:25:17.518Z,3.20
2023-06-03T00:27:50.551Z,4.13
2023-06-03T00:30:20.712Z,3.45
2023-06-03T00:32:50.068Z,4.75
2023-06-03T00:35:20.722Z,3.33
2023-06-03T00:37:49.569Z,2.75
2023-06-03T00:40:18.979Z,10.60
2023-06-03T00:42:47.665Z,4.25
2023-06-03T00:45:16.545Z,7.75
2023-06-03T00:47:46.916Z,2.63
2023-06-03T00:50:17.071Z,1.90
2023-06-03T00:52:47.783Z,1.60
2023-06-03T00:55:16.576Z,1.85
2023-06-03T00:57:45.420Z,1.50
2023-06-03T01:00:15.089Z,1.67
2023-06-03T01:02:47.837Z,1.77
2023-06-03T01:05:17.435Z,2.00
2023-06-03T01:07:54.108Z,2.85
2023-06-03T01:10:27.015Z,1.70
2023-06-03T01:13:05.731Z,1.90
2023-06-03T01:15:37.460Z,1.40
2023-06-03T01:18:08.497Z,1.83
2023-06-03T01:20:37.967Z,1.90
2023-06-03T01:23:20.526Z,2.05
2023-06-03T01:25:52.346Z,2.30
2023-06-03T01:28:21.813Z,2.00
2023-06-03T01:30:51.158Z,2.45
2023-06-03T01:33:21.868Z,1.92
2023-06-03T01:35:51.794Z,2.38
2023-06-03T01:38:28.345Z,2.10
2023-06-03T01:41:00.561Z,2.35
2023-06-03T01:43:29.183Z,2.08
2023-06-03T01:45:58.884Z,1.63
2023-06-03T01:48:27.974Z,2.22
2023-06-03T01:50:57.236Z,2.75
2023-06-03T01:53:28.300Z,2.28
2023-06-03T01:55:57.167Z,2.50
2023-06-03T01:58:25.825Z,2.53
2023-06-03T02:00:54.349Z,2.20
2023-06-03T02:03:23.146Z,1.75
2023-06-03T02:05:51.755Z,1.77
2023-06-03T02:08:20.777Z,1.83
2023-06-03T02:10:50.666Z,1.77
2023-06-03T02:13:19.017Z,1.58
2023-06-03T02:15:47.734Z,1.50
2023-06-03T02:18:16.957Z,1.50
2023-06-03T02:20:46.473Z,2.17
2023-06-03T02:23:16.356Z,1.98
2023-06-03T02:25:45.964Z,1.60
2023-06-03T02:28:17.894Z,2.10
2023-06-03T02:30:46.369Z,1.95
2023-06-03T02:33:15.338Z,2.38
2023-06-03T02:35:43.873Z,2.00
2023-06-03T02:38:13.243Z,1.92
2023-06-03T02:40:42.738Z,2.15
2023-06-03T02:43:11.149Z,1.95
2023-06-03T02:45:41.987Z,2.03
2023-06-03T02:48:10.286Z,2.03
2023-06-03T02:50:40.083Z,1.67
2023-06-03T02:53:09.068Z,1.70
2023-06-03T02:55:37.938Z,1.70
2023-06-03T02:58:06.447Z,1.83
2023-06-03T03:00:41.705Z,1.88
2023-06-03T03:03:11.071Z,1.63
2023-06-03T03:05:41.567Z,1.70
2023-06-03T03:08:10.180Z,1.67
2023-06-03T03:10:38.501Z,1.77
2023-06-03T03:13:07.232Z,1.63
2023-06-03T03:15:36.103Z,1.90
2023-06-03T03:18:06.138Z,1.90
2023-06-03T03:20:34.823Z,1.30
2023-06-03T03:23:07.203Z,1.33
2023-06-03T03:25:35.664Z,1.48
2023-06-03T03:28:04.656Z,1.40
2023-06-03T03:30:33.470Z,1.48
2023-06-03T03:33:03.073Z,1.80
2023-06-03T03:35:33.217Z,1.92
2023-06-03T03:38:04.193Z,1.83
2023-06-03T03:40:37.441Z,1.83
2023-06-03T03:43:06.807Z,1.98
2023-06-03T03:45:37.529Z,2.10
2023-06-03T03:48:10.475Z,1.83
2023-06-03T03:50:45.145Z,1.63
2023-06-03T03:53:17.993Z,1.90
2023-06-03T03:58:28.925Z,1.88
2023-06-03T04:01:03.876Z,1.80
2023-06-03T04:03:37.331Z,2.00
2023-06-03T04:06:10.023Z,1.50
2023-06-03T04:08:41.021Z,1.48
2023-06-03T04:11:14.264Z,1.50
2023-06-03T04:13:43.002Z,1.70
2023-06-03T04:16:15.324Z,1.55
2023-06-03T04:18:44.379Z,1.40
2023-06-03T04:21:21.469Z,2.08
2023-06-03T04:23:51.623Z,1.60
2023-06-03T04:26:21.292Z,1.73
2023-06-03T04:28:49.887Z,1.83
2023-06-03T04:31:18.493Z,1.10
2023-06-03T04:33:47.118Z,1.73
2023-06-03T04:36:17.302Z,1.65
2023-06-03T04:38:47.273Z,1.20
2023-06-03T04:41:16.678Z,1.25
2023-06-03T04:43:46.614Z,1.20
2023-06-03T04:46:17.504Z,1.17
2023-06-03T04:48:49.633Z,1.38
2023-06-03T04:51:19.774Z,1.13
2023-06-03T04:53:48.206Z,1.02
2023-06-03T04:56:18.081Z,1.02
2023-06-03T04:58:48.673Z,1.17
2023-06-03T05:01:27.080Z,1.00
2023-06-03T05:03:57.100Z,1.15
2023-06-03T05:06:27.028Z,1.50
2023-06-03T05:08:56.570Z,1.20
2023-06-03T05:11:25.412Z,0.88
2023-06-03T05:13:53.922Z,0.98
2023-06-03T05:16:22.521Z,1.00
2023-06-03T05:18:51.412Z,0.90
2023-06-03T05:21:23.007Z,1.05
2023-06-03T05:23:53.028Z,0.70
2023-06-03T05:26:22.016Z,1.02
2023-06-03T05:28:50.971Z,1.08
2023-06-03T05:31:20.017Z,0.90
2023-06-03T05:33:48.920Z,0.98
2023-06-03T05:36:21.295Z,2.90
2023-06-03T05:38:52.751Z,1.10
2023-06-03T05:41:23.171Z,13.95
2023-06-03T05:43:52.077Z,6.95
2023-06-03T05:46:23.078Z,1.45
2023-06-03T05:48:52.632Z,1.27
2023-06-03T05:51:23.515Z,0.80
2023-06-03T05:53:53.999Z,0.90
2023-06-03T05:56:29.082Z,0.90
2023-06-03T05:59:01.972Z,0.75
2023-06-03T06:01:36.423Z,0.80
2023-06-03T06:04:07.006Z,0.80
2023-06-03T06:07:07.897Z,1.00
2023-06-03T06:09:42.693Z,0.90
2023-06-03T06:12:11.371Z,1.15
2023-06-03T06:14:40.418Z,0.93
2023-06-03T06:17:09.540Z,0.90
2023-06-03T06:19:38.047Z,0.77
2023-06-03T06:22:08.148Z,0.60
2023-06-03T06:24:38.662Z,0.82
2023-06-03T06:27:09.922Z,0.80
2023-06-03T06:32:11.415Z,0.80
2023-06-03T06:34:41.743Z,0.70
2023-06-03T06:37:11.357Z,0.68
2023-06-03T06:39:51.377Z,0.70
2023-06-03T06:42:47.907Z,1.33
2023-06-03T06:45:57.467Z,1.13
2023-06-03T06:48:26.462Z,0.50
2023-06-03T06:51:02.527Z,0.95
2023-06-03T06:53:39.110Z,1.10
2023-06-03T06:56:12.005Z,0.70
2023-06-03T06:58:55.454Z,0.50
2023-06-03T07:01:26.285Z,1.00
2023-06-03T07:03:57.542Z,0.65
2023-06-03T07:06:26.489Z,0.68
2023-06-03T07:09:04.072Z,0.80
2023-06-03T07:11:38.774Z,0.60
2023-06-03T07:14:10.258Z,1.02
2023-06-03T07:16:41.344Z,0.90
2023-06-03T07:19:10.078Z,0.80
2023-06-03T07:21:43.799Z,0.70
2023-06-03T07:24:17.599Z,0.70
2023-06-03T07:26:54.854Z,0.90
2023-06-03T07:29:26.219Z,0.90
2023-06-03T07:31:55.855Z,0.63
2023-06-03T07:34:27.807Z,0.70
2023-06-03T07:36:59.820Z,0.50
2023-06-03T07:39:32.311Z,0.90
2023-06-03T07:44:46.774Z,0.55
2023-06-03T07:47:17.456Z,0.60
2023-06-03T07:49:52.080Z,0.88
2023-06-03T07:52:22.295Z,0.65
2023-06-03T07:54:51.571Z,0.60
2023-06-03T07:57:20.312Z,0.52
2023-06-03T07:59:53.955Z,0.40
2023-06-03T08:02:22.909Z,0.57
2023-06-03T08:04:53.914Z,0.70
2023-06-03T08:07:22.569Z,0.70
2023-06-03T08:09:51.131Z,0.85
2023-06-03T08:12:24.661Z,0.70
2023-06-03T08:14:54.611Z,0.63
2023-06-03T08:17:36.264Z,0.55
2023-06-03T08:20:13.779Z,0.73
2023-06-03T08:22:44.777Z,1.25
2023-06-03T08:25:18.262Z,0.88
2023-06-03T08:27:48.494Z,0.80
2023-06-03T08:30:26.263Z,0.93
2023-06-03T08:32:54.944Z,0.80
2023-06-03T08:35:26.736Z,0.85
2023-06-03T08:37:56.017Z,0.60
2023-06-03T08:40:31.021Z,0.52
2023-06-03T08:43:05.099Z,0.77
2023-06-03T08:45:44.314Z,0.65
2023-06-03T08:48:21.971Z,0.90
2023-06-03T08:50:52.168Z,0.90
2023-06-03T08:53:21.381Z,0.95
2023-06-03T08:55:59.943Z,0.75
2023-06-03T08:58:34.649Z,1.00
2023-06-03T09:01:06.518Z,0.70
2023-06-03T09:03:38.333Z,0.85
2023-06-03T09:06:07.584Z,0.93
2023-06-03T09:08:37.833Z,0.90
2023-06-03T09:11:13.783Z,0.82
2023-06-03T09:13:42.892Z,0.90
2023-06-03T09:16:15.512Z,0.63
2023-06-03T09:18:49.641Z,0.82
2023-06-03T09:21:18.717Z,0.90
2023-06-03T09:23:47.561Z,0.90
2023-06-03T09:26:16.285Z,0.70
2023-06-03T09:28:45.174Z,1.15
2023-06-03T09:31:15.778Z,0.80
2023-06-03T09:33:50.850Z,1.10
2023-06-03T09:36:20.447Z,0.93
2023-06-03T09:38:55.557Z,0.90
2023-06-03T09:41:25.177Z,1.00
2023-06-03T09:44:02.844Z,1.25
2023-06-03T09:46:33.951Z,1.40
2023-06-03T09:49:20.366Z,1.17
2023-06-03T09:51:53.201Z,0.98
2023-06-03T09:54:25.151Z,0.90
2023-06-03T09:59:25.026Z,1.27
2023-06-03T10:01:56.455Z,1.43
2023-06-03T10:04:41.977Z,1.20
2023-06-03T10:07:11.715Z,1.00
2023-06-03T10:09:46.343Z,1.10
2023-06-03T10:12:16.532Z,0.80
2023-06-03T10:14:49.091Z,1.23
2023-06-03T10:17:20.886Z,1.13
2023-06-03T10:19:50.690Z,0.90
2023-06-03T10:22:20.695Z,1.42
2023-06-03T10:24:50.275Z,1.50
2023-06-03T10:27:20.355Z,1.20
2023-06-03T10:29:53.433Z,1.23
2023-06-03T10:32:28.901Z,1.13
2023-06-03T10:35:01.864Z,1.35
2023-06-03T10:37:31.638Z,1.00
2023-06-03T10:40:02.129Z,1.00
2023-06-03T10:42:31.825Z,1.00
2023-06-03T10:45:01.601Z,1.05
2023-06-03T10:47:32.981Z,1.00
2023-06-03T10:52:59.149Z,0.95
2023-06-03T10:56:10.894Z,1.63
2023-06-03T10:58:42.625Z,0.70
2023-06-03T11:01:11.555Z,0.77
2023-06-03T11:04:13.261Z,0.73
2023-06-03T11:06:43.596Z,0.90
2023-06-03T11:09:18.030Z,0.82
2023-06-03T11:12:06.915Z,0.80
2023-06-03T11:14:54.054Z,0.95
2023-06-03T11:17:26.465Z,0.95
2023-06-03T11:19:59.850Z,0.95
2023-06-03T11:22:57.015Z,0.82
2023-06-03T11:25:30.369Z,1.88
2023-06-03T11:28:31.535Z,0.65
2023-06-03T11:31:00.386Z,2.13
2023-06-03T11:33:29.009Z,1.13
2023-06-03T11:35:57.490Z,0.90
2023-06-03T11:39:01.800Z,1.25
2023-06-03T11:42:06.345Z,0.60
2023-06-03T11:44:36.519Z,1.30
2023-06-03T11:47:06.768Z,1.10
2023-06-03T11:49:37.419Z,1.00
2023-06-03T11:52:06.776Z,1.23
2023-06-03T11:55:05.847Z,1.10
2023-06-03T11:57:35.864Z,0.50
2023-06-03T12:00:09.707Z,0.60
2023-06-03T12:02:42.456Z,0.70
2023-06-03T12:05:12.020Z,0.90
2023-06-03T12:07:41.538Z,0.57
2023-06-03T12:10:11.129Z,0.90
2023-06-03T12:12:51.936Z,0.70
2023-06-03T12:15:22.888Z,0.80
2023-06-03T12:17:52.081Z,0.63
2023-06-03T12:20:29.478Z,0.60
2023-06-03T12:23:01.860Z,0.73
2023-06-03T12:25:30.682Z,0.60
2023-06-03T12:28:00.861Z,1.27
2023-06-03T12:30:34.444Z,0.70
2023-06-03T12:33:04.184Z,0.80
2023-06-03T12:35:33.044Z,1.13
2023-06-03T12:38:05.997Z,0.95
2023-06-03T12:40:35.031Z,0.85
2023-06-03T12:43:05.846Z,1.00
2023-06-03T12:45:34.649Z,0.68
2023-06-03T12:48:03.337Z,1.73
2023-06-03T12:50:34.855Z,0.80
2023-06-03T12:53:15.677Z,0.60
2023-06-03T12:55:44.490Z,0.70
2023-06-03T12:58:14.773Z,1.48
2023-06-03T13:00:43.684Z,1.48
2023-06-03T13:03:12.794Z,1.13
2023-06-03T13:05:43.631Z,1.05
2023-06-03T13:08:14.597Z,0.68
2023-06-03T13:10:43.864Z,0.77
2023-06-03T13:13:13.109Z,0.50
2023-06-03T13:15:43.349Z,0.57
2023-06-03T13:18:12.034Z,0.57
2023-06-03T13:20:44.044Z,0.60
2023-06-03T13:23:12.696Z,0.65
2023-06-03T13:25:46.777Z,0.70
2023-06-03T13:28:16.876Z,1.00
2023-06-03T13:30:51.267Z,1.35
2023-06-03T13:33:20.480Z,0.77
2023-06-03T13:35:49.459Z,0.63
2023-06-03T13:38:18.212Z,0.60
2023-06-03T13:40:47.349Z,0.60
2023-06-03T13:43:16.352Z,0.73
2023-06-03T13:45:47.465Z,0.70
2023-06-03T13:48:16.378Z,0.88
2023-06-03T13:50:44.863Z,0.68
2023-06-03T13:53:14.376Z,0.95
2023-06-03T13:55:43.069Z,0.50
2023-06-03T13:58:11.875Z,0.93
2023-06-03T14:00:41.001Z,0.70
2023-06-03T14:03:12.193Z,0.75
2023-06-03T14:05:41.065Z,0.60
2023-06-03T14:08:09.839Z,0.77
2023-06-03T14:10:38.337Z,0.50
2023-06-03T14:13:07.001Z,1.13
2023-06-03T14:15:37.652Z,0.60
2023-06-03T14:18:07.733Z,0.98
2023-06-03T14:20:39.419Z,0.70
2023-06-03T14:23:08.550Z,0.65
2023-06-03T14:25:37.317Z,0.70
2023-06-03T14:28:06.070Z,0.90
2023-06-03T14:30:50.466Z,0.70
2023-06-03T14:33:27.284Z,0.57
2023-06-03T14:40:57.320Z,0.50
2023-06-03T14:43:26.071Z,0.63
2023-06-03T14:45:54.857Z,0.70
2023-06-03T14:48:24.346Z,0.60
2023-06-03T14:50:52.952Z,0.75
2023-06-03T14:53:23.111Z,0.35
2023-06-03T14:55:52.441Z,0.57
2023-06-03T14:58:23.122Z,0.40
2023-06-03T15:00:52.144Z,0.80
2023-06-03T15:03:21.741Z,0.80
2023-06-03T15:05:50.582Z,0.77
2023-06-03T15:08:19.508Z,0.60
2023-06-03T15:10:49.579Z,1.00
2023-06-03T15:13:18.592Z,0.63
2023-06-03T15:15:47.265Z,0.60
2023-06-03T15:18:19.260Z,0.80
2023-06-03T15:20:49.184Z,0.80
2023-06-03T15:23:18.087Z,0.55
2023-06-03T15:25:47.387Z,0.70
2023-06-03T15:28:17.936Z,0.70
2023-06-03T15:30:46.426Z,0.70
2023-06-03T15:33:15.282Z,0.88
2023-06-03T15:35:43.938Z,0.65
2023-06-03T15:38:12.555Z,0.77
2023-06-03T15:40:41.625Z,0.50
2023-06-03T15:43:10.646Z,0.80
2023-06-03T15:45:40.798Z,0.43
2023-06-03T15:48:09.853Z,0.63
2023-06-03T15:50:38.782Z,0.65
2023-06-03T15:53:07.448Z,0.75
2023-06-03T15:55:43.310Z,0.85
2023-06-03T15:58:11.974Z,0.77
2023-06-03T16:00:42.063Z,0.50
2023-06-03T16:03:10.985Z,0.68
2023-06-03T16:05:40.069Z,0.40
2023-06-03T16:08:08.959Z,0.77
2023-06-03T16:10:38.604Z,0.50
2023-06-03T16:13:08.342Z,0.70
2023-06-03T16:15:37.877Z,0.55
2023-06-03T16:18:09.176Z,0.63
2023-06-03T16:20:38.424Z,0.82
2023-06-03T16:23:07.313Z,0.43
2023-06-03T16:25:36.271Z,0.82
2023-06-03T16:28:05.142Z,0.65
2023-06-03T16:30:33.831Z,0.70
2023-06-03T16:33:02.882Z,0.95
2023-06-03T16:35:32.959Z,1.25
2023-06-03T16:38:01.623Z,1.40
2023-06-03T16:40:30.397Z,1.40
2023-06-03T16:42:59.524Z,1.38
2023-06-03T16:45:28.233Z,1.35
2023-06-03T16:47:56.989Z,0.85
2023-06-03T16:50:26.029Z,0.50
2023-06-03T16:52:56.966Z,0.82
2023-06-03T16:55:25.641Z,0.63
2023-06-03T16:57:54.566Z,0.50
2023-06-03T17:00:23.252Z,0.73
2023-06-03T17:02:52.259Z,0.43
2023-06-03T17:05:21.150Z,0.55
2023-06-03T17:07:50.166Z,0.65
2023-06-03T17:10:20.151Z,0.50
2023-06-03T17:12:50.753Z,0.50
2023-06-03T17:15:20.694Z,0.30
2023-06-03T17:17:53.224Z,0.50
2023-06-03T17:20:23.051Z,0.60
2023-06-03T17:22:52.696Z,0.52
2023-06-03T17:25:22.735Z,0.65
2023-06-03T17:27:51.742Z,0.50
2023-06-03T17:30:21.737Z,0.75
2023-06-03T17:32:50.574Z,0.73
2023-06-03T17:35:22.238Z,0.60
2023-06-03T17:37:51.411Z,0.85
2023-06-03T17:40:20.393Z,0.25
2023-06-03T17:42:51.126Z,0.60
2023-06-03T17:45:21.880Z,0.60
2023-06-03T17:47:51.174Z,0.40
2023-06-03T17:50:21.174Z,0.50
2023-06-03T17:52:50.778Z,0.50
2023-06-03T17:55:19.806Z,0.57
2023-06-03T17:58:02.327Z,0.80
2023-06-03T18:00:31.379Z,0.98
2023-06-03T18:03:01.552Z,0.80
2023-06-03T18:05:30.668Z,0.65
2023-06-03T18:08:00.375Z,0.80
2023-06-03T18:10:29.374Z,0.88
2023-06-03T18:12:59.869Z,0.80
2023-06-03T18:15:29.144Z,0.82
2023-06-03T18:17:58.794Z,1.20
2023-06-03T18:20:27.552Z,1.27
2023-06-03T18:22:57.940Z,1.50
2023-06-03T18:25:27.822Z,1.75
2023-06-03T18:27:56.582Z,3.47
2023-06-03T18:30:27.177Z,1.90
2023-06-03T18:32:55.940Z,2.00
2023-06-03T18:35:25.795Z,1.90
2023-06-03T18:37:54.422Z,2.20
2023-06-03T18:40:23.055Z,2.05
2023-06-03T18:42:57.365Z,2.40
2023-06-03T18:45:27.468Z,1.52
2023-06-03T18:47:56.484Z,1.88
2023-06-03T18:50:25.174Z,1.95
2023-06-03T18:52:53.801Z,2.55
2023-06-03T18:55:22.749Z,1.40
2023-06-03T18:57:51.414Z,1.08
2023-06-03T19:00:20.356Z,0.95
2023-06-03T19:02:50.624Z,1.30
2023-06-03T19:05:19.786Z,1.10
2023-06-03T19:07:48.597Z,1.33
2023-06-03T19:10:17.314Z,1.33
2023-06-03T19:12:47.577Z,2.40
2023-06-03T19:15:16.881Z,2.03
2023-06-03T19:17:46.837Z,3.65
2023-06-03T19:20:17.660Z,4.88
2023-06-03T19:22:47.061Z,8.27
2023-06-03T19:25:21.185Z,8.02
2023-06-03T19:27:50.086Z,8.75
2023-06-03T19:30:18.677Z,6.53
2023-06-03T19:32:47.687Z,10.55
2023-06-03T19:35:18.089Z,11.65
2023-06-03T19:37:46.727Z,14.40
2023-06-03T19:40:16.265Z,9.32
2023-06-03T19:42:46.926Z,6.50
2023-06-03T19:45:16.423Z,5.85
2023-06-03T19:47:45.600Z,11.82
2023-06-03T19:50:14.661Z,16.58
2023-06-03T19:52:55.093Z,16.25
2023-06-03T19:55:25.170Z,10.35
2023-06-03T19:57:54.384Z,7.63
2023-06-03T20:00:24.031Z,6.82
2023-06-03T20:02:52.663Z,6.60
2023-06-03T20:05:21.690Z,5.65
2023-06-03T20:07:52.831Z,5.40
2023-06-03T20:10:24.391Z,7.22
2023-06-03T20:12:53.053Z,16.63
2023-06-03T20:15:25.695Z,14.32
2023-06-03T20:17:54.426Z,12.25
2023-06-03T20:20:23.390Z,17.83
2023-06-03T20:22:55.454Z,25.33
2023-06-03T20:25:25.679Z,20.25
2023-06-03T20:27:56.680Z,12.00
2023-06-03T20:30:26.361Z,9.17
2023-06-03T20:32:58.255Z,16.85
2023-06-03T20:35:26.999Z,23.60
2023-06-03T20:37:57.134Z,13.93
2023-06-03T20:40:27.046Z,9.48
2023-06-03T20:42:56.015Z,9.18
2023-06-03T20:45:24.768Z,6.57
2023-06-03T20:47:56.560Z,4.63
2023-06-03T20:50:27.420Z,3.97
2023-06-03T20:52:57.524Z,2.78
2023-06-03T20:55:27.411Z,2.88
2023-06-03T20:57:56.021Z,2.90
2023-06-03T21:00:25.222Z,3.08
2023-06-03T21:02:54.181Z,3.42
2023-06-03T21:05:23.457Z,3.90
2023-06-03T21:07:52.408Z,3.58
2023-06-03T21:10:22.778Z,3.20
2023-06-03T21:12:51.900Z,2.88
2023-06-03T21:15:20.600Z,2.92
2023-06-03T21:17:49.326Z,2.50
2023-06-03T21:20:18.291Z,2.13
2023-06-03T21:22:47.027Z,2.95
2023-06-03T21:25:15.825Z,2.35
2023-06-03T21:27:45.796Z,3.47
2023-06-03T21:30:16.430Z,8.52
2023-06-03T21:32:45.497Z,13.32
2023-06-03T21:35:15.164Z,7.30
2023-06-03T21:37:44.030Z,4.30
2023-06-03T21:40:15.187Z,3.53
2023-06-03T21:42:46.054Z,2.27
2023-06-03T21:45:14.961Z,1.90
2023-06-03T21:47:43.659Z,2.05
2023-06-03T21:50:13.207Z,2.05
2023-06-03T21:52:43.645Z,4.45
2023-06-03T21:55:12.670Z,7.13
2023-06-03T21:57:41.560Z,8.88
2023-06-03T22:00:15.586Z,10.65
2023-06-03T22:02:44.523Z,9.55
2023-06-03T22:05:13.450Z,6.47
2023-06-03T22:07:42.055Z,5.70
2023-06-03T22:10:11.312Z,3.35
2023-06-03T22:12:40.195Z,2.78
2023-06-03T22:15:10.840Z,1.80
2023-06-03T22:17:43.845Z,2.15
2023-06-03T22:20:13.506Z,4.45
2023-06-03T22:22:44.555Z,2.65
2023-06-03T22:25:15.078Z,3.17
2023-06-03T22:27:43.595Z,4.03
2023-06-03T22:30:12.962Z,7.15
2023-06-03T22:32:41.522Z,6.40
2023-06-03T22:35:12.896Z,6.13
2023-06-03T22:37:41.381Z,5.88
2023-06-03T22:40:11.211Z,4.50
2023-06-03T22:42:40.354Z,3.55
2023-06-03T22:45:09.860Z,7.13
2023-06-03T22:47:39.260Z,6.45
2023-06-03T22:50:09.224Z,6.72
2023-06-03T22:52:39.963Z,4.15
2023-06-03T22:55:09.762Z,2.85
2023-06-03T22:57:38.422Z,3.35
2023-06-03T23:00:09.419Z,3.83
2023-06-03T23:02:39.235Z,3.63
2023-06-03T23:05:09.713Z,7.50
2023-06-03T23:07:42.221Z,7.95
2023-06-03T23:10:11.973Z,8.85
2023-06-03T23:12:40.632Z,9.48
2023-06-03T23:15:10.150Z,8.10
2023-06-03T23:17:38.907Z,7.57
2023-06-03T23:20:18.936Z,6.72
2023-06-03T23:22:49.154Z,6.60
2023-06-03T23:25:18.898Z,7.50
2023-06-03T23:27:48.121Z,6.50
2023-06-03T23:30:17.269Z,6.45
2023-06-03T23:32:49.258Z,5.43
2023-06-03T23:35:19.622Z,5.85
2023-06-03T23:37:49.942Z,5.93
2023-06-03T23:40:19.205Z,8.45
2023-06-03T23:42:48.266Z,9.18
2023-06-03T23:45:17.047Z,8.55
2023-06-03T23:47:45.715Z,5.00
2023-06-03T23:50:14.397Z,6.88
2023-06-03T23:52:43.082Z,4.35
2023-06-03T23:55:15.195Z,4.72
2023-06-03T23:57:44.142Z,4.38
